Time;durP1;ratioP1;P1;durP2;ratioP2;P2;SDS_P1;SDS_P2;PMS_P1;PMS_P2;Temp;Humidity;BMP_temperature;BMP_pressure;BME280_temperature;BME280_humidity;BME280_pressure;Samples;Min_cycle;Max_cycle;Signal;HPM_P1;HPM_P2
2022/09/04 00:00:18;;;;;;;;;38.60;34.80;;;;;20.64;45.66;99107.03;6235768;27;97026;-58
2022/09/04 00:03:32;;;;;;;;;39.20;35.20;;;;;20.59;45.75;99092.53;6246167;27;97187;-57
2022/09/04 00:06:48;;;;;;;;;47.00;39.00;;;;;20.57;45.87;99094.75;6249479;27;97393;-55
2022/09/04 00:10:08;;;;;;;;;46.80;40.00;;;;;20.57;46.30;99103.78;6260777;27;97467;-56
2022/09/04 00:13:21;;;;;;;;;36.40;33.00;;;;;20.57;46.13;99111.19;6248111;27;97410;-55
2022/09/04 00:16:32;;;;;;;;;44.80;38.80;;;;;20.58;45.94;99104.59;6260781;27;96619;-55
2022/09/04 00:19:42;;;;;;;;;34.60;32.60;;;;;20.59;46.16;99098.84;6260550;27;97025;-55
2022/09/04 00:22:53;;;;;;;;;45.20;39.20;;;;;20.62;46.34;99097.47;6259839;27;97723;-58
2022/09/04 00:26:07;;;;;;;;;48.00;41.00;;;;;20.52;46.05;99081.09;6260433;27;97406;-56
2022/09/04 00:29:21;;;;;;;;;45.00;39.00;;;;;20.66;46.23;99104.03;6265214;27;97465;-59
2022/09/04 00:32:29;;;;;;;;;46.00;39.20;;;;;20.66;46.09;99102.09;6255529;27;97305;-56
2022/09/04 00:35:36;;;;;;;;;26.33;25.50;;;;;20.66;46.05;99098.53;6263872;27;96939;-58
2022/09/04 00:38:46;;;;;;;;;44.60;38.60;;;;;20.60;46.17;99100.47;6264355;27;97609;-56
2022/09/04 00:42:05;;;;;;;;;48.50;41.50;;;;;20.58;46.19;99099.09;6264501;27;96961;-57
2022/09/04 00:45:26;;;;;;;;;47.60;40.60;;;;;20.57;45.93;99102.97;6264661;27;97577;-57
2022/09/04 00:49:02;;;;;;;;;47.00;39.00;;;;;20.53;46.06;99094.47;6262474;27;97131;-57
2022/09/04 00:52:16;;;;;;;;;46.40;39.60;;;;;20.54;46.03;99109.81;6244894;27;96575;-57
2022/09/04 00:55:41;;;;;;;;;44.20;38.40;;;;;20.54;46.35;99104.34;6261912;27;97558;-58
2022/09/04 00:59:03;;;;;;;;;40.40;35.80;;;;;20.51;46.03;99109.56;6263068;27;96760;-55
2022/09/04 01:02:15;;;;;;;;;37.00;33.40;;;;;20.48;46.20;99113.69;6253929;27;97067;-55
2022/09/04 01:05:36;;;;;;;;;49.75;42.00;;;;;20.45;46.03;99108.78;6244470;27;96766;-58
2022/09/04 01:09:00;;;;;;;;;48.60;41.20;;;;;20.41;46.21;99104.13;6261027;27;97415;-56
2022/09/04 01:12:13;;;;;;;;;46.67;40.33;;;;;20.39;46.18;99104.41;6262497;27;97723;-61
2022/09/04 01:15:24;;;;;;;;;39.00;35.00;;;;;20.39;46.39;99106.31;6261221;27;96874;-56
2022/09/04 01:18:37;;;;;;;;;59.60;49.20;;;;;20.36;46.26;99104.16;6260501;27;96388;-53
2022/09/04 01:22:08;;;;;;;;;47.40;40.00;;;;;20.35;46.42;99092.38;6249188;27;97252;-57
2022/09/04 01:25:29;;;;;;;;;54.83;45.83;;;;;20.33;46.44;99099.25;6248011;27;97036;-59
2022/09/04 01:28:42;;;;;;;;;49.00;42.00;;;;;20.30;46.42;99097.84;6261042;27;97241;-58
2022/09/04 01:31:52;;;;;;;;;45.75;39.75;;;;;20.28;46.58;99097.31;6237906;27;96562;-58
2022/09/04 01:35:05;;;;;;;;;41.00;36.20;;;;;20.28;46.41;99092.63;6261201;27;97472;-57
2022/09/04 01:38:16;;;;;;;;;50.00;42.00;;;;;20.29;46.43;99097.03;6261919;27;96650;-57
2022/09/04 01:41:24;;;;;;;;;44.00;38.00;;;;;20.29;46.27;99088.81;6245474;27;96503;-56
2022/09/04 01:44:29;;;;;;;;;52.00;44.00;;;;;20.33;46.34;99099.25;6237741;27;97431;-55
2022/09/04 01:47:42;;;;;;;;;40.60;36.00;;;;;20.35;46.24;99100.59;6238887;27;97432;-56
2022/09/04 01:50:50;;;;;;;;;50.60;43.60;;;;;20.36;46.24;99104.97;6237577;27;97458;-58
2022/09/04 01:54:06;;;;;;;;;44.67;38.17;;;;;20.35;46.34;99108.81;6239520;27;96571;-58
2022/09/04 01:57:19;;;;;;;;;42.20;36.60;;;;;20.35;46.22;99118.94;6236663;27;98515;-58
2022/09/04 02:00:25;;;;;;;;;45.60;39.40;;;;;20.33;46.40;99110.19;6240786;27;97243;-57
2022/09/04 02:03:42;;;;;;;;;49.00;42.00;;;;;20.30;46.20;99106.06;6252577;27;97478;-57
2022/09/04 02:06:55;;;;;;;;;37.20;34.00;;;;;20.29;46.33;99105.22;6247878;27;97486;-55
2022/09/04 02:10:07;;;;;;;;;55.00;46.00;;;;;20.26;46.34;99107.72;6261433;27;96462;-56
2022/09/04 02:13:22;;;;;;;;;44.20;38.20;;;;;20.24;46.74;99108.00;6244270;27;98020;-56
2022/09/04 02:16:37;;;;;;;;;45.00;39.00;;;;;20.25;46.81;99117.03;6253450;27;96716;-57
2022/09/04 02:19:58;;;;;;;;;53.00;44.40;;;;;20.27;46.82;99112.09;6254891;27;96538;-58
2022/09/04 02:23:10;;;;;;;;;45.80;39.00;;;;;20.29;46.69;99101.66;6251229;27;97013;-57
2022/09/04 02:26:21;;;;;;;;;46.20;39.20;;;;;20.32;46.55;99106.63;6261770;27;97078;-55
2022/09/04 02:29:31;;;;;;;;;47.00;39.00;;;;;20.30;46.53;99101.44;6262059;27;96988;-56
2022/09/04 02:32:42;;;;;;;;;46.60;40.00;;;;;20.16;46.74;99086.69;6245743;27;97102;-57
2022/09/04 02:35:53;;;;;;;;;47.50;40.50;;;;;20.27;46.66;99101.97;6261969;27;97635;-60
2022/09/04 02:39:07;;;;;;;;;52.00;44.00;;;;;20.23;46.62;99102.81;6261664;27;97048;-61
2022/09/04 02:42:21;;;;;;;;;45.00;39.00;;;;;20.21;46.41;99099.53;6251539;27;97441;-58
2022/09/04 02:45:33;;;;;;;;;50.20;43.00;;;;;20.18;46.41;99100.09;6236043;27;97307;-55
2022/09/04 02:48:50;;;;;;;;;45.17;38.50;;;;;20.14;46.76;99101.72;6234242;28;96530;-58
2022/09/04 02:52:03;;;;;;;;;47.00;40.00;;;;;20.11;46.43;99105.03;6238087;27;97663;-56
2022/09/04 02:55:29;;;;;;;;;60.25;49.75;;;;;20.11;46.85;99105.84;6236798;27;97355;-56
2022/09/04 02:58:45;;;;;;;;;46.00;39.60;;;;;20.09;46.65;99099.81;6235585;27;97077;-59
2022/09/04 03:01:56;;;;;;;;;44.40;37.20;;;;;20.06;46.80;99103.13;6235193;28;97452;-58
2022/09/04 03:05:11;;;;;;;;;47.60;40.60;;;;;20.03;46.91;99103.69;6235726;27;97356;-57
2022/09/04 03:08:21;;;;;;;;;47.40;40.00;;;;;20.02;46.93;99106.69;6257617;27;97452;-58
2022/09/04 03:11:33;;;;;;;;;47.20;39.60;;;;;19.92;46.83;99090.31;6252800;27;97034;-57
2022/09/04 03:14:44;;;;;;;;;48.00;40.80;;;;;20.02;46.80;99110.25;6251026;27;97116;-57
2022/09/04 03:18:00;;;;;;;;;44.60;38.20;;;;;20.03;47.04;99097.41;6238778;27;96949;-58
2022/09/04 03:21:10;;;;;;;;;44.00;38.00;;;;;20.03;46.73;99105.63;6235832;27;97058;-59
2022/09/04 03:24:21;;;;;;;;;40.40;36.20;;;;;19.83;46.87;99077.19;6239898;27;97226;-59
2022/09/04 03:27:27;;;;;;;;;50.00;42.60;;;;;19.94;46.75;99102.59;6235347;27;96936;-59
2022/09/04 03:30:36;;;;;;;;;53.80;44.80;;;;;19.88;47.08;99096.34;6235505;27;97515;-58
2022/09/04 03:33:47;;;;;;;;;43.33;37.83;;;;;19.88;47.18;99099.09;6235276;28;97528;-58
2022/09/04 03:37:04;;;;;;;;;52.00;43.60;;;;;19.86;46.87;99086.75;6235398;28;97143;-57
2022/09/04 03:40:18;;;;;;;;;48.00;41.00;;;;;19.84;46.94;99094.44;6241112;27;97545;-57
2022/09/04 03:43:39;;;;;;;;;45.00;39.00;;;;;19.82;47.21;99102.91;6241484;27;96813;-58
2022/09/04 03:46:57;;;;;;;;;49.00;42.00;;;;;19.85;47.44;99115.22;6235716;27;97635;-58
2022/09/04 03:50:11;;;;;;;;;37.20;33.80;;;;;19.85;47.34;99107.81;6235341;28;97427;-61
2022/09/04 03:53:30;;;;;;;;;45.00;39.00;;;;;19.76;47.11;99101.28;6236646;27;97126;-56
2022/09/04 03:56:56;;;;;;;;;49.25;42.25;;;;;19.84;47.08;99108.91;6235524;27;96824;-57
2022/09/04 04:00:07;;;;;;;;;50.00;42.40;;;;;19.82;46.99;99113.03;6235916;27;96637;-58
2022/09/04 04:03:33;;;;;;;;;47.00;40.00;;;;;19.79;47.09;99125.34;6240086;27;96637;-58
2022/09/04 04:06:46;;;;;;;;;57.50;47.50;;;;;19.77;47.14;99127.53;6252105;27;97193;-56
2022/09/04 04:10:03;;;;;;;;;44.60;38.40;;;;;19.77;47.12;99122.06;6241481;27;96851;-57
2022/09/04 04:13:30;;;;;;;;;45.80;39.00;;;;;19.76;47.26;99123.16;6248614;27;96868;-55
2022/09/04 04:16:50;;;;;;;;;45.17;39.00;;;;;19.74;47.21;99122.59;6239334;27;96696;-58
2022/09/04 04:20:12;;;;;;;;;41.40;36.20;;;;;19.69;47.35;99117.19;6237299;27;97012;-57
2022/09/04 04:23:42;;;;;;;;;39.80;34.40;;;;;19.67;47.10;99124.00;6248871;27;98253;-61
2022/09/04 04:26:58;;;;;;;;;47.50;40.75;;;;;19.61;47.42;99123.19;6239229;27;97591;-56
2022/09/04 04:30:09;;;;;;;;;49.60;42.60;;;;;19.53;47.46;99128.38;6235266;28;96932;-59
2022/09/04 04:33:31;;;;;;;;;41.40;36.00;;;;;19.46;47.65;99134.13;6254462;27;97201;-59
2022/09/04 04:36:41;;;;;;;;;62.00;50.80;;;;;19.40;47.84;99133.25;6233989;27;97236;-58
2022/09/04 04:39:52;;;;;;;;;50.17;42.00;;;;;19.38;47.84;99127.25;6233563;27;97729;-57
2022/09/04 04:43:05;;;;;;;;;52.83;44.17;;;;;19.42;47.82;99138.47;6235109;27;97447;-58
2022/09/04 04:46:18;;;;;;;;;47.40;40.20;;;;;19.21;47.76;99110.28;6238851;27;97483;-57
2022/09/04 04:49:41;;;;;;;;;60.40;49.00;;;;;19.26;48.07;99140.38;6235309;27;97236;-56
2022/09/04 04:52:53;;;;;;;;;49.00;41.67;;;;;19.38;48.00;99168.28;6238530;27;96655;-55
2022/09/04 04:56:02;;;;;;;;;60.80;49.80;;;;;19.41;48.22;99164.97;6235271;27;97528;-57
2022/09/04 04:59:22;;;;;;;;;68.20;58.40;;;;;19.45;48.30;99163.38;6234560;27;97439;-56
2022/09/04 05:02:30;;;;;;;;;50.00;42.00;;;;;19.47;47.88;99163.09;6237764;27;97479;-57
2022/09/04 05:05:52;;;;;;;;;58.80;48.40;;;;;19.46;47.80;99169.66;6237782;27;97117;-56
2022/09/04 05:09:07;;;;;;;;;48.00;40.60;;;;;19.52;48.02;99173.22;6243757;27;96614;-58
2022/09/04 05:12:22;;;;;;;;;64.67;53.50;;;;;19.59;48.04;99187.47;6245461;27;97479;-59
2022/09/04 05:15:35;;;;;;;;;50.60;43.20;;;;;19.66;47.85;99183.34;6237806;27;97560;-60
2022/09/04 05:19:07;;;;;;;;;50.50;43.25;;;;;19.72;47.42;99187.72;6237774;27;97159;-63
2022/09/04 05:22:18;;;;;;;;;38.50;34.75;;;;;19.76;47.37;99188.00;6246138;27;98079;-59
2022/09/04 05:25:30;;;;;;;;;54.50;45.50;;;;;19.84;47.51;99192.94;6237645;27;96882;-58
2022/09/04 05:28:45;;;;;;;;;54.80;45.40;;;;;19.90;47.14;99189.09;6236063;28;99028;-56
2022/09/04 05:31:56;;;;;;;;;52.17;43.83;;;;;19.96;47.16;99182.50;6237212;27;97398;-61
2022/09/04 05:35:09;;;;;;;;;41.00;36.00;;;;;19.99;47.26;99176.47;6237488;28;96752;-58
2022/09/04 05:38:20;;;;;;;;;40.40;35.80;;;;;19.86;47.06;99169.66;6237289;27;97035;-57
2022/09/04 05:41:39;;;;;;;;;43.80;37.80;;;;;20.00;46.98;99186.34;6237272;27;97623;-58
2022/09/04 05:44:58;;;;;;;;;50.00;41.80;;;;;20.00;46.65;99191.81;6237347;27;97384;-58
2022/09/04 05:48:13;;;;;;;;;45.60;39.00;;;;;19.99;46.88;99194.84;6240669;27;97558;-58
2022/09/04 05:51:52;;;;;;;;;45.00;38.40;;;;;20.05;47.09;99207.41;6238451;27;96675;-60
2022/09/04 05:55:30;;;;;;;;;52.00;44.00;;;;;20.08;47.01;99209.59;6237181;27;96511;-56
2022/09/04 05:58:56;;;;;;;;;35.60;32.60;;;;;20.15;46.67;99212.88;6211421;27;97147;-58
2022/09/04 06:02:30;;;;;;;;;65.00;54.00;;;;;20.18;46.99;99218.59;6226168;27;97140;-57
2022/09/04 06:05:44;;;;;;;;;38.80;33.60;;;;;20.23;47.01;99226.00;6230283;27;96586;-58
2022/09/04 06:09:10;;;;;;;;;48.33;41.00;;;;;20.24;46.62;99228.47;6240676;27;96848;-57
2022/09/04 06:12:28;;;;;;;;;51.33;43.67;;;;;20.19;46.63;99214.78;6246889;27;96873;-56
2022/09/04 06:15:51;;;;;;;;;36.00;33.00;;;;;20.22;47.08;99210.69;6240566;27;96973;-58
2022/09/04 06:19:27;;;;;;;;;45.00;39.00;;;;;20.30;46.68;99219.19;6244944;27;97072;-57
2022/09/04 06:22:51;;;;;;;;;66.83;56.33;;;;;20.30;47.08;99221.91;6239167;27;97430;-61
2022/09/04 06:26:15;;;;;;;;;47.00;39.50;;;;;20.21;47.10;99204.38;6237720;27;98192;-57
2022/09/04 06:29:35;;;;;;;;;58.40;48.80;;;;;20.44;46.84;99227.63;6238306;27;97464;-59
2022/09/04 06:33:11;;;;;;;;;14.40;14.20;;;;;20.51;46.83;99224.59;6243347;27;96906;-58
2022/09/04 06:36:35;;;;;;;;;54.20;45.20;;;;;20.58;47.05;99228.69;6243979;27;97180;-59
2022/09/04 06:39:52;;;;;;;;;44.60;38.00;;;;;20.69;47.05;99233.03;6242420;27;97392;-58
2022/09/04 06:43:09;;;;;;;;;37.75;33.75;;;;;20.76;46.53;99235.50;6247532;27;97828;-55
2022/09/04 06:46:22;;;;;;;;;48.75;41.75;;;;;20.85;46.60;99253.00;6244090;27;98092;-57
2022/09/04 06:49:36;;;;;;;;;46.17;39.67;;;;;20.92;46.59;99247.19;6244748;27;96858;-55
2022/09/04 06:52:54;;;;;;;;;43.80;37.00;;;;;21.00;46.65;99246.63;6239531;27;97811;-55
2022/09/04 06:56:25;;;;;;;;;45.20;39.00;;;;;21.08;46.41;99252.34;6234789;27;96954;-55
2022/09/04 06:59:53;;;;;;;;;48.20;41.40;;;;;21.17;46.22;99258.91;6237342;27;97581;-56
2022/09/04 07:03:22;;;;;;;;;49.25;42.25;;;;;21.19;45.88;99258.63;6234470;27;98258;-58
2022/09/04 07:06:46;;;;;;;;;47.40;40.40;;;;;21.25;46.09;99260.25;6235908;27;97492;-55
2022/09/04 07:09:57;;;;;;;;;30.60;29.60;;;;;21.25;45.85;99248.47;6244385;27;96967;-58
2022/09/04 07:13:34;;;;;;;;;41.80;36.00;;;;;21.30;46.12;99254.75;6243375;27;98133;-56
2022/09/04 07:16:45;;;;;;;;;55.80;46.60;;;;;21.27;46.15;99249.81;6237075;27;97397;-58
2022/09/04 07:20:12;;;;;;;;;46.00;39.60;;;;;21.29;45.78;99258.56;6244237;27;96763;-58
2022/09/04 07:23:25;;;;;;;;;42.20;35.80;;;;;21.30;46.27;99265.72;6243630;27;97395;-56
2022/09/04 07:26:36;;;;;;;;;49.33;42.33;;;;;21.29;45.95;99264.06;6235551;27;97048;-55
2022/09/04 07:29:49;;;;;;;;;37.00;33.60;;;;;21.25;46.03;99252.03;6258192;27;97357;-59
2022/09/04 07:32:58;;;;;;;;;52.50;44.50;;;;;21.33;46.37;99254.16;6238034;27;96888;-54
2022/09/04 07:36:09;;;;;;;;;42.00;36.00;;;;;21.43;46.34;99264.25;6244026;27;97626;-57
2022/09/04 07:39:23;;;;;;;;;45.25;38.25;;;;;21.47;46.21;99263.41;6244690;27;96625;-59
2022/09/04 07:42:31;;;;;;;;;54.40;46.00;;;;;21.51;46.18;99263.66;6239397;27;98830;-57
2022/09/04 07:45:38;;;;;;;;;49.33;41.50;;;;;21.50;45.89;99251.84;6247878;27;97153;-57
2022/09/04 07:48:49;;;;;;;;;54.20;45.60;;;;;21.55;45.99;99246.34;6247509;27;97395;-57
2022/09/04 07:51:59;;;;;;;;;46.67;39.67;;;;;21.67;45.98;99254.22;6242594;27;96485;-56
2022/09/04 07:55:15;;;;;;;;;54.83;46.33;;;;;21.76;45.91;99268.16;6245129;27;97518;-57
2022/09/04 07:58:44;;;;;;;;;50.00;41.83;;;;;21.83;45.75;99269.47;6249400;27;97520;-60
2022/09/04 08:02:05;;;;;;;;;47.00;39.60;;;;;21.87;45.85;99272.47;6250721;27;97039;-55
2022/09/04 08:05:21;;;;;;;;;29.40;29.00;;;;;21.97;45.65;99289.72;6257987;27;97418;-57
2022/09/04 08:08:42;;;;;;;;;43.25;37.25;;;;;22.15;45.62;99299.16;6255211;27;97491;-56
2022/09/04 08:12:19;;;;;;;;;43.80;37.60;;;;;22.46;45.56;99284.06;6268437;27;96622;-56
2022/09/04 08:15:35;;;;;;;;;39.20;35.40;;;;;22.93;45.30;99298.97;6237656;27;97424;-57
2022/09/04 08:19:02;;;;;;;;;43.40;37.80;;;;;23.41;44.60;99305.25;6244080;27;96919;-56
2022/09/04 08:22:12;;;;;;;;;9.00;9.00;;;;;23.70;42.84;99288.66;6249997;27;97120;-58
2022/09/04 08:25:25;;;;;;;;;39.25;35.50;;;;;24.05;42.33;99295.53;6252159;27;96581;-57
2022/09/04 08:28:45;;;;;;;;;33.50;31.00;;;;;24.36;41.02;99313.25;6252134;27;96870;-58
2022/09/04 08:32:03;;;;;;;;;21.60;21.40;;;;;24.57;41.40;99321.97;6240293;27;97174;-57
2022/09/04 08:35:17;;;;;;;;;42.50;37.50;;;;;24.78;40.67;99305.84;6242676;27;97486;-56
2022/09/04 08:38:38;;;;;;;;;28.40;28.20;;;;;25.05;40.38;99305.94;6265020;27;97186;-57
2022/09/04 08:42:17;;;;;;;;;36.60;33.00;;;;;25.16;40.12;99309.31;6265034;27;96583;-57
2022/09/04 08:45:56;;;;;;;;;42.20;35.80;;;;;25.26;39.63;99312.69;6263581;27;97654;-57
2022/09/04 08:49:40;;;;;;;;;37.33;34.00;;;;;25.39;39.74;99317.34;6263286;27;98079;-59
2022/09/04 08:53:18;;;;;;;;;36.00;33.00;;;;;25.58;39.65;99327.47;6264465;27;96609;-58
2022/09/04 08:56:29;;;;;;;;;38.40;34.40;;;;;25.71;39.08;99332.16;6255916;27;96844;-62
2022/09/04 09:00:03;;;;;;;;;45.20;38.20;;;;;25.91;39.02;99328.09;6265381;27;96613;-59
2022/09/04 09:03:50;;;;;;;;;35.60;33.00;;;;;26.15;38.11;99331.38;6264768;27;97473;-57
2022/09/04 09:07:23;;;;;;;;;32.80;30.20;;;;;26.49;38.13;99328.91;6262509;27;97634;-58
2022/09/04 09:10:37;;;;;;;;;35.50;32.25;;;;;26.79;37.87;99332.00;6264683;27;97582;-59
2022/09/04 09:14:16;;;;;;;;;31.33;30.33;;;;;27.09;37.25;99337.56;6263186;27;98602;-58
2022/09/04 09:17:37;;;;;;;;;44.00;38.00;;;;;27.28;36.46;99340.06;6264309;27;96485;-59
2022/09/04 09:20:52;;;;;;;;;14.60;13.60;;;;;27.35;36.16;99343.19;6263604;27;96635;-60
2022/09/04 09:24:23;;;;;;;;;34.00;32.00;;;;;27.39;36.68;99343.38;6263243;27;97932;-60
2022/09/04 09:28:09;;;;;;;;;36.80;32.80;;;;;27.27;36.23;99343.97;6260221;27;96905;-64
2022/09/04 09:31:42;;;;;;;;;41.40;36.40;;;;;27.14;36.44;99345.72;6249263;27;96742;-54
2022/09/04 09:35:21;;;;;;;;;35.60;32.60;;;;;27.02;36.67;99355.78;6263178;27;97053;-60
2022/09/04 09:39:04;;;;;;;;;35.60;33.00;;;;;26.99;36.93;99357.22;6263051;27;97171;-60
2022/09/04 09:42:42;;;;;;;;;33.40;31.60;;;;;26.81;36.88;99357.41;6258018;27;96889;-57
2022/09/04 09:46:10;;;;;;;;;35.67;33.00;;;;;26.63;37.18;99351.75;6261540;27;96454;-59
2022/09/04 09:49:52;;;;;;;;;38.00;35.00;;;;;26.58;37.32;99357.47;6260246;27;97138;-57
2022/09/04 09:53:29;;;;;;;;;47.40;40.80;;;;;26.50;37.27;99366.50;6244394;27;96823;-61
2022/09/04 09:57:35;;;;;;;;;35.00;33.00;;;;;26.38;37.81;99366.25;6238588;28;97931;-56
2022/09/04 10:00:51;;;;;;;;;41.20;36.20;;;;;26.38;37.85;99374.56;6260133;27;96606;-57
2022/09/04 10:04:27;;;;;;;;;43.80;37.80;;;;;26.42;38.45;99366.44;6263476;27;97554;-57
2022/09/04 10:08:20;;;;;;;;;34.25;32.00;;;;;26.50;37.79;99372.03;6262816;27;96702;-60
2022/09/04 10:12:06;;;;;;;;;31.40;29.40;;;;;26.50;37.81;99366.50;6260491;27;97448;-59
2022/09/04 10:15:47;;;;;;;;;36.50;32.75;;;;;26.55;38.10;99357.25;6263653;27;97351;-61
2022/09/04 10:19:11;;;;;;;;;33.25;32.00;;;;;26.49;37.71;99362.09;6263280;27;97502;-57
2022/09/04 10:22:35;;;;;;;;;19.50;19.50;;;;;26.37;37.64;99363.78;6261959;27;97470;-54
2022/09/04 10:25:54;;;;;;;;;38.40;35.00;;;;;26.29;38.03;99362.63;6263496;27;96583;-58
2022/09/04 10:29:35;;;;;;;;;36.60;33.00;;;;;26.30;38.75;99362.28;6262902;27;96651;-57
2022/09/04 10:33:13;;;;;;;;;37.00;33.40;;;;;26.46;37.75;99359.16;6262272;27;98262;-59
2022/09/04 10:36:26;;;;;;;;;24.33;24.33;;;;;26.58;38.24;99371.28;6263073;27;96632;-58
2022/09/04 10:43:25;;;;;;;;;34.00;32.25;;;;;26.82;37.49;99373.72;6263057;27;97543;-55
2022/09/04 10:46:39;;;;;;;;;39.80;35.00;;;;;26.94;37.32;99373.13;6262942;27;97013;-57
2022/09/04 10:49:58;;;;;;;;;37.00;33.75;;;;;27.14;36.93;99367.06;6257868;27;96951;-57
2022/09/04 10:53:27;;;;;;;;;37.50;33.50;;;;;27.29;36.41;99366.63;6250223;27;97934;-57
2022/09/04 10:56:46;;;;;;;;;35.00;32.80;;;;;27.41;37.44;99380.69;6247577;27;97252;-61
2022/09/04 11:00:05;;;;;;;;;32.80;31.60;;;;;27.48;36.84;99369.94;6246620;27;97030;-57
2022/09/04 11:03:45;;;;;;;;;35.80;33.00;;;;;27.72;36.65;99388.94;6246233;27;97491;-58
2022/09/04 11:07:17;;;;;;;;;35.00;32.00;;;;;27.89;36.42;99380.66;6246569;27;96998;-60
2022/09/04 11:10:46;;;;;;;;;35.50;32.75;;;;;28.02;35.98;99381.66;6246619;27;97821;-59
2022/09/04 11:14:05;;;;;;;;;30.40;30.00;;;;;28.09;35.60;99379.22;6246073;27;97071;-57
2022/09/04 11:17:39;;;;;;;;;36.00;33.00;;;;;28.17;35.89;99377.63;6245117;27;97497;-60
2022/09/04 11:21:12;;;;;;;;;29.20;28.60;;;;;28.20;35.31;99374.22;6246950;27;97493;-59
2022/09/04 11:25:03;;;;;;;;;32.80;31.40;;;;;28.15;35.26;99371.59;6246799;27;96866;-61
2022/09/04 11:28:20;;;;;;;;;33.00;32.00;;;;;28.09;34.94;99370.09;6246334;27;96758;-57
2022/09/04 11:31:49;;;;;;;;;37.80;34.80;;;;;27.95;34.79;99376.59;6246149;27;97491;-67
2022/09/04 11:35:28;;;;;;;;;29.20;28.20;;;;;27.83;35.11;99373.66;6237180;28;97462;-58
2022/09/04 11:38:56;;;;;;;;;29.50;28.50;;;;;27.70;35.58;99376.56;6236799;28;97797;-56
2022/09/04 11:42:31;;;;;;;;;33.40;31.60;;;;;27.62;35.74;99380.09;6236980;28;97177;-56
2022/09/04 11:46:12;;;;;;;;;35.60;32.60;;;;;27.64;35.55;99380.63;6235693;28;96818;-59
2022/09/04 11:49:42;;;;;;;;;31.50;30.50;;;;;27.71;36.87;99386.50;6236547;28;96648;-60
2022/09/04 11:53:10;;;;;;;;;36.20;33.40;;;;;27.87;36.19;99382.94;6237170;27;96904;-56
2022/09/04 11:56:41;;;;;;;;;36.60;33.80;;;;;28.04;36.35;99365.53;6245972;27;97023;-60
2022/09/04 12:00:06;;;;;;;;;33.25;32.00;;;;;28.29;36.06;99367.53;6224945;27;97201;-61
2022/09/04 12:03:40;;;;;;;;;34.50;32.00;;;;;28.62;34.91;99355.88;6236739;27;97615;-61
2022/09/04 12:06:58;;;;;;;;;23.00;22.50;;;;;28.85;34.32;99360.09;6247231;27;96699;-58
2022/09/04 12:10:22;;;;;;;;;38.75;34.75;;;;;29.00;34.28;99361.53;6261204;27;97559;-59
2022/09/04 12:13:42;;;;;;;;;38.00;34.50;;;;;29.10;34.22;99352.84;6261687;27;96712;-59
2022/09/04 12:17:09;;;;;;;;;30.00;29.75;;;;;29.27;34.00;99366.66;6261699;27;96417;-58
2022/09/04 12:20:46;;;;;;;;;31.60;30.00;;;;;29.33;33.41;99361.75;6247629;27;97526;-57
2022/09/04 12:24:20;;;;;;;;;30.00;30.00;;;;;29.39;34.14;99365.97;6226010;27;98715;-62
2022/09/04 12:27:57;;;;;;;;;42.40;37.00;;;;;29.37;33.82;99380.19;6251751;27;97500;-55
2022/09/04 12:31:21;;;;;;;;;35.00;32.00;;;;;29.30;33.33;99382.66;6247098;27;97167;-57
2022/09/04 12:34:46;;;;;;;;;39.00;34.60;;;;;29.26;33.12;99379.72;6240578;27;98185;-57
2022/09/04 12:38:16;;;;;;;;;36.00;33.00;;;;;29.28;33.38;99374.63;6240016;27;97261;-57
2022/09/04 12:41:27;;;;;;;;;33.40;32.00;;;;;29.37;33.90;99373.84;6241993;27;96540;-57
2022/09/04 12:44:47;;;;;;;;;35.00;33.00;;;;;29.36;33.36;99353.56;6242169;27;97003;-56
2022/09/04 12:48:03;;;;;;;;;39.20;35.00;;;;;29.52;33.54;99367.69;6250516;27;97484;-57
2022/09/04 12:51:12;;;;;;;;;35.60;33.00;;;;;29.45;32.48;99359.91;6247591;27;97682;-61
2022/09/04 12:54:38;;;;;;;;;33.00;31.60;;;;;29.35;33.07;99362.22;6244392;27;97403;-62
2022/09/04 12:57:55;;;;;;;;;36.00;32.80;;;;;29.24;32.82;99365.34;6250501;27;97448;-59
2022/09/04 13:01:12;;;;;;;;;34.60;32.00;;;;;29.16;33.11;99359.84;6250388;27;97218;-58
2022/09/04 13:04:22;;;;;;;;;33.00;31.25;;;;;29.09;33.09;99365.06;6245236;27;98078;-58
2022/09/04 13:07:44;;;;;;;;;29.60;29.00;;;;;28.99;33.11;99369.03;6253375;27;98575;-59
2022/09/04 13:11:00;;;;;;;;;35.00;32.25;;;;;28.84;32.87;99359.28;6238716;27;96414;-60
2022/09/04 13:14:23;;;;;;;;;30.20;29.40;;;;;28.81;33.79;99368.28;6244878;27;97209;-61
2022/09/04 13:17:33;;;;;;;;;39.00;34.60;;;;;28.72;33.56;99364.72;6240795;27;97915;-61
2022/09/04 13:20:46;;;;;;;;;33.20;31.60;;;;;28.52;34.04;99337.63;6248883;27;97089;-60
2022/09/04 13:24:24;;;;;;;;;33.25;31.25;;;;;28.63;34.17;99363.06;6245744;27;97477;-60
2022/09/04 13:27:47;;;;;;;;;28.60;27.60;;;;;28.55;34.83;99363.88;6256508;27;97411;-59
2022/09/04 13:30:58;;;;;;;;;32.00;31.00;;;;;28.47;35.46;99370.25;6251293;27;97519;-58
2022/09/04 13:34:14;;;;;;;;;35.60;32.00;;;;;28.39;35.41;99367.16;6259300;27;96833;-59
2022/09/04 13:37:25;;;;;;;;;35.60;33.00;;;;;28.33;35.62;99367.69;6251448;27;98044;-60
2022/09/04 13:40:53;;;;;;;;;29.00;29.00;;;;;28.25;35.85;99376.78;6256053;27;96980;-57
2022/09/04 13:44:18;;;;;;;;;34.00;32.00;;;;;28.16;36.35;99376.78;6250356;27;96929;-57
2022/09/04 13:47:25;;;;;;;;;42.00;36.20;;;;;28.08;36.07;99380.34;6249548;27;97591;-58
2022/09/04 13:50:41;;;;;;;;;28.25;28.00;;;;;27.98;36.65;99381.50;6260658;27;97384;-58
2022/09/04 13:53:58;;;;;;;;;32.75;30.75;;;;;27.94;36.45;99388.84;6247456;27;97478;-58
2022/09/04 13:57:08;;;;;;;;;32.50;30.50;;;;;27.91;36.32;99381.16;6245696;27;97450;-60
2022/09/04 14:00:15;;;;;;;;;31.00;30.00;;;;;27.89;36.44;99382.63;6248204;27;97424;-58
2022/09/04 14:03:33;;;;;;;;;33.20;31.60;;;;;27.87;36.47;99387.66;6248115;27;97427;-61
2022/09/04 14:06:37;;;;;;;;;27.00;27.00;;;;;27.83;36.58;99381.97;6247698;27;96951;-60
2022/09/04 14:09:46;;;;;;;;;31.50;29.75;;;;;27.81;36.68;99380.63;6242283;27;98229;-61
2022/09/04 14:13:04;;;;;;;;;22.00;21.00;;;;;27.80;36.84;99384.56;6247574;27;97227;-60
2022/09/04 14:16:14;;;;;;;;;32.20;31.20;;;;;27.74;37.12;99378.34;6253492;27;97445;-56
2022/09/04 14:19:31;;;;;;;;;29.80;29.80;;;;;27.71;37.09;99380.97;6247336;27;97451;-60
2022/09/04 14:22:47;;;;;;;;;39.00;35.00;;;;;27.68;37.21;99379.66;6250744;27;96541;-56
2022/09/04 14:26:05;;;;;;;;;34.60;32.40;;;;;27.66;36.90;99381.13;6247352;27;97410;-60
2022/09/04 14:29:20;;;;;;;;;26.75;26.75;;;;;27.40;37.45;99350.53;6256554;27;96961;-57
2022/09/04 14:32:33;;;;;;;;;36.60;33.40;;;;;27.61;37.60;99390.41;6242141;27;97120;-57
2022/09/04 14:35:45;;;;;;;;;35.60;32.60;;;;;27.56;37.18;99387.78;6248397;27;97339;-56
2022/09/04 14:39:01;;;;;;;;;31.25;30.75;;;;;27.52;37.69;99393.13;6241135;27;97747;-60
2022/09/04 14:42:32;;;;;;;;;30.40;30.00;;;;;27.48;37.27;99380.19;6246946;27;97542;-57
2022/09/04 14:46:05;;;;;;;;;42.40;36.40;;;;;27.46;38.34;99382.50;6246092;27;97324;-61
2022/09/04 14:49:15;;;;;;;;;30.80;29.80;;;;;27.42;38.29;99385.06;6253767;27;97727;-57
2022/09/04 14:52:22;;;;;;;;;37.80;34.00;;;;;27.39;38.66;99377.41;6260825;27;96805;-58
2022/09/04 14:55:28;;;;;;;;;34.00;32.00;;;;;27.33;38.74;99387.00;6236738;27;97462;-56
2022/09/04 14:58:39;;;;;;;;;47.00;40.00;;;;;27.27;39.45;99387.47;6235184;28;97974;-61
2022/09/04 15:02:01;;;;;;;;;30.00;29.80;;;;;27.19;39.87;99393.78;6257405;27;97498;-61
2022/09/04 15:05:15;;;;;;;;;29.00;28.60;;;;;27.11;40.28;99387.06;6237511;27;97557;-57
2022/09/04 15:08:28;;;;;;;;;32.60;30.00;;;;;27.00;40.68;99392.06;6237183;27;96444;-59
2022/09/04 15:11:34;;;;;;;;;31.50;30.00;;;;;26.92;40.99;99392.84;6252729;27;97068;-56
2022/09/04 15:14:39;;;;;;;;;39.40;35.00;;;;;26.86;41.24;99390.47;6248880;27;97518;-60
2022/09/04 15:17:51;;;;;;;;;33.67;32.00;;;;;26.78;41.12;99391.25;6241471;27;97430;-61
2022/09/04 15:21:00;;;;;;;;;37.75;33.75;;;;;26.62;41.05;99383.34;6237799;27;97502;-59